Time;durP1;ratioP1;P1;durP2;ratioP2;P2;SDS_P1;SDS_P2;PMS_P1;PMS_P2;Temp;Humidity;BMP_temperature;BMP_pressure;BME280_temperature;BME280_humidity;BME280_pressure;Samples;Min_cycle;Max_cycle;Signal;HPM_P1;HPM_P2
2022/03/20 00:02:19;;;;;;;;;;;;;;;17.82;42.83;103544.06;5127083;28;19907;-60
2022/03/20 00:04:45;;;;;;;;;;;;;;;17.81;42.84;103538.78;5126676;28;19998;-60
2022/03/20 00:07:11;;;;;;;;;;;;;;;17.81;42.79;103536.09;5126940;28;19911;-60
2022/03/20 00:09:37;;;;;;;;;;;;;;;17.80;42.79;103543.31;5126153;28;19953;-60
2022/03/20 00:12:02;;;;;;;;;;;;;;;17.80;42.69;103537.03;5126993;28;19912;-60
2022/03/20 00:14:27;;;;;;;;;;;;;;;17.80;42.57;103539.72;5126705;28;19915;-59
2022/03/20 00:16:53;;;;;;;;;;;;;;;17.79;42.65;103533.47;5126633;28;20301;-60
2022/03/20 00:19:19;;;;;;;;;;;;;;;17.77;42.85;103524.66;5126875;28;19972;-60
2022/03/20 00:21:44;;;;;;;;;;;;;;;17.77;42.72;103521.97;5126825;28;19972;-60
2022/03/20 00:24:09;;;;;;;;;;;;;;;17.76;42.51;103517.56;5125106;28;19927;-59
2022/03/20 00:26:34;;;;;;;;;;;;;;;17.76;42.53;103519.38;5126031;28;19994;-60
2022/03/20 00:28:59;;;;;;;;;;;;;;;17.76;42.70;103509.47;5126598;28;19907;-59
2022/03/20 00:31:25;;;;;;;;;;;;;;;17.76;42.50;103508.63;5126098;28;19908;-59
2022/03/20 00:33:50;;;;;;;;;;;;;;;17.74;42.48;103506.88;5126668;28;19930;-58
2022/03/20 00:36:16;;;;;;;;;;;;;;;17.73;42.67;103497.03;5126404;28;19949;-60
2022/03/20 00:38:41;;;;;;;;;;;;;;;17.73;42.57;103498.88;5126161;28;19907;-60
2022/03/20 00:41:06;;;;;;;;;;;;;;;17.73;42.71;103496.19;5125738;28;19942;-60
2022/03/20 00:43:31;;;;;;;;;;;;;;;17.72;42.67;103489.06;5126442;28;19912;-60
2022/03/20 00:45:56;;;;;;;;;;;;;;;17.71;42.45;103492.72;5125620;28;20105;-60
2022/03/20 00:48:22;;;;;;;;;;;;;;;17.70;42.54;103478.38;5126364;28;19960;-60
2022/03/20 00:50:47;;;;;;;;;;;;;;;17.70;42.56;103481.09;5126033;28;20411;-60
2022/03/20 00:53:12;;;;;;;;;;;;;;;17.69;42.45;103478.50;5126289;28;19908;-60
2022/03/20 00:55:37;;;;;;;;;;;;;;;17.68;42.53;103477.63;5125565;28;19918;-60
2022/03/20 00:58:02;;;;;;;;;;;;;;;17.68;42.65;103466.03;5124446;28;19908;-60
2022/03/20 01:00:27;;;;;;;;;;;;;;;17.67;42.63;103466.97;5121560;28;20343;-59
2022/03/20 01:02:52;;;;;;;;;;;;;;;17.66;42.59;103463.41;5105633;28;19915;-60
2022/03/20 01:05:18;;;;;;;;;;;;;;;17.66;42.51;103459.84;5104020;28;19915;-60
2022/03/20 01:07:43;;;;;;;;;;;;;;;17.66;42.60;103452.66;5105766;28;19908;-60
2022/03/20 01:10:08;;;;;;;;;;;;;;;17.65;42.44;103452.75;5104434;28;19908;-60
2022/03/20 01:12:34;;;;;;;;;;;;;;;17.65;42.45;103447.38;5105449;28;19914;-60
2022/03/20 01:15:00;;;;;;;;;;;;;;;17.63;42.48;103439.41;5121738;28;19923;-60
2022/03/20 01:17:25;;;;;;;;;;;;;;;17.62;42.55;103437.66;5124885;28;19907;-60
2022/03/20 01:19:51;;;;;;;;;;;;;;;17.63;42.52;103435.88;5125538;28;19979;-60
2022/03/20 01:22:16;;;;;;;;;;;;;;;17.62;42.34;103431.41;5125486;28;19920;-60
2022/03/20 01:24:41;;;;;;;;;;;;;;;17.61;42.49;103433.25;5125058;28;19912;-60
2022/03/20 01:27:07;;;;;;;;;;;;;;;17.60;42.27;103428.84;5124720;28;19920;-60
2022/03/20 01:29:34;;;;;;;;;;;;;;;17.60;42.53;103434.22;5125181;28;20253;-59
2022/03/20 01:31:59;;;;;;;;;;;;;;;17.59;42.38;103424.44;5125038;28;19908;-60
2022/03/20 01:34:26;;;;;;;;;;;;;;;17.59;42.44;103427.13;5123881;28;19978;-60
2022/03/20 01:36:52;;;;;;;;;;;;;;;17.58;42.48;103417.31;5125468;28;20557;-60
2022/03/20 01:39:17;;;;;;;;;;;;;;;17.56;42.50;103408.47;5124992;28;19933;-59
2022/03/20 01:41:46;;;;;;;;;;;;;;;17.56;42.21;103407.63;5124572;28;19907;-60
2022/03/20 01:44:11;;;;;;;;;;;;;;;17.57;42.37;103406.66;5124991;28;19912;-61
2022/03/20 01:46:36;;;;;;;;;;;;;;;17.55;42.20;103395.13;5124615;28;20014;-59
2022/03/20 01:49:01;;;;;;;;;;;;;;;17.55;42.22;103392.44;5125286;28;20375;-60
2022/03/20 01:54:10;;;;;;;;;;;;;;;17.52;42.19;103382.75;5124983;28;19950;-59
2022/03/20 01:56:36;;;;;;;;;;;;;;;17.53;42.16;103380.91;5124495;28;19908;-60
2022/03/20 01:59:03;;;;;;;;;;;;;;;17.52;42.40;103379.19;5123752;28;19908;-60
2022/03/20 02:01:28;;;;;;;;;;;;;;;17.52;42.32;103376.50;5124345;28;19919;-60
2022/03/20 02:03:54;;;;;;;;;;;;;;;17.51;42.16;103372.09;5125242;28;19908;-60
2022/03/20 02:06:19;;;;;;;;;;;;;;;17.51;42.10;103366.72;5124657;28;19980;-59
2022/03/20 02:08:44;;;;;;;;;;;;;;;17.50;42.28;103360.47;5123269;28;19907;-59
2022/03/20 02:11:09;;;;;;;;;;;;;;;17.49;42.23;103366.78;5124117;28;19963;-61
2022/03/20 02:13:34;;;;;;;;;;;;;;;17.48;42.10;103357.00;5123245;28;19941;-61
2022/03/20 02:15:59;;;;;;;;;;;;;;;17.47;42.24;103344.53;5123929;28;20002;-60
2022/03/20 02:18:25;;;;;;;;;;;;;;;17.47;42.10;103342.69;5124730;28;19915;-60
2022/03/20 02:20:51;;;;;;;;;;;;;;;17.47;42.34;103350.75;5122983;28;19952;-60
2022/03/20 02:23:16;;;;;;;;;;;;;;;17.47;42.09;103344.53;5123325;28;19966;-60
2022/03/20 02:25:50;;;;;;;;;;;;;;;17.46;42.00;103327.53;5123875;28;19911;-60
2022/03/20 02:28:16;;;;;;;;;;;;;;;17.44;42.06;103325.88;5125865;28;19955;-60
2022/03/20 02:30:41;;;;;;;;;;;;;;;17.44;42.01;103320.50;5130876;27;19907;-60
2022/03/20 02:33:06;;;;;;;;;;;;;;;17.43;42.06;103319.66;5131573;28;19927;-60
2022/03/20 02:35:32;;;;;;;;;;;;;;;17.42;42.13;103309.88;5131561;28;19908;-60
2022/03/20 02:37:57;;;;;;;;;;;;;;;17.42;42.11;103306.31;5131422;27;19933;-60
2022/03/20 02:40:22;;;;;;;;;;;;;;;17.41;42.14;103297.34;5129261;28;19993;-60
2022/03/20 02:42:48;;;;;;;;;;;;;;;17.41;41.88;103304.56;5131360;27;19957;-59
2022/03/20 02:45:14;;;;;;;;;;;;;;;17.39;42.05;103296.59;5122883;28;20555;-60
2022/03/20 02:47:41;;;;;;;;;;;;;;;17.40;42.00;103301.03;5131331;28;19908;-60
2022/03/20 02:50:11;;;;;;;;;;;;;;;17.38;42.08;103286.81;5131375;27;19907;-60
2022/03/20 02:52:39;;;;;;;;;;;;;;;17.38;41.89;103283.28;5131232;27;19946;-60
2022/03/20 02:55:04;;;;;;;;;;;;;;;17.38;42.04;103291.34;5130822;28;19982;-60
2022/03/20 02:57:30;;;;;;;;;;;;;;;17.36;41.89;103287.88;5131247;27;19932;-60
2022/03/20 03:00:00;;;;;;;;;;;;;;;17.36;41.85;103275.28;5130781;27;20356;-60
2022/03/20 03:02:25;;;;;;;;;;;;;;;17.35;41.94;103272.72;5130949;27;20355;-60
2022/03/20 03:04:50;;;;;;;;;;;;;;;17.35;41.88;103268.19;5129720;28;19914;-60
2022/03/20 03:07:15;;;;;;;;;;;;;;;17.33;42.02;103262.06;5131335;28;19911;-60
2022/03/20 03:12:25;;;;;;;;;;;;;;;17.32;41.81;103246.03;5131007;28;19915;-59
2022/03/20 03:17:34;;;;;;;;;;;;;;;17.32;41.78;103251.41;5129930;28;19911;-60
2022/03/20 03:19:59;;;;;;;;;;;;;;;17.32;41.76;103249.56;5130725;28;19907;-60
2022/03/20 03:22:25;;;;;;;;;;;;;;;17.30;41.70;103238.06;5130910;27;19915;-60
2022/03/20 03:24:50;;;;;;;;;;;;;;;17.30;41.74;103242.59;5130566;27;19908;-60
2022/03/20 03:27:15;;;;;;;;;;;;;;;17.28;41.91;103242.66;5130929;27;19911;-59
2022/03/20 03:29:40;;;;;;;;;;;;;;;17.28;41.72;103248.03;5130525;27;19908;-58
2022/03/20 03:32:05;;;;;;;;;;;;;;;17.28;41.75;103239.97;5130496;27;19914;-60
2022/03/20 03:37:18;;;;;;;;;;;;;;;17.25;41.70;103229.44;5131154;28;19910;-60
2022/03/20 03:39:44;;;;;;;;;;;;;;;17.26;41.70;103220.41;5128817;28;19972;-60
2022/03/20 03:42:09;;;;;;;;;;;;;;;17.25;41.87;103224.06;5127296;28;20310;-60
2022/03/20 03:44:34;;;;;;;;;;;;;;;17.24;41.85;103216.94;5126666;28;19918;-59
2022/03/20 03:46:59;;;;;;;;;;;;;;;17.23;41.61;103207.16;5127073;27;19911;-60
2022/03/20 03:49:24;;;;;;;;;;;;;;;17.23;41.87;103207.16;5127181;28;19908;-60
2022/03/20 03:51:49;;;;;;;;;;;;;;;17.22;41.61;103200.94;5127258;28;19907;-60
2022/03/20 03:54:14;;;;;;;;;;;;;;;17.22;41.62;103209.00;5127604;28;19907;-60
2022/03/20 03:56:40;;;;;;;;;;;;;;;17.21;41.59;103201.03;5126641;28;19912;-60
2022/03/20 03:59:05;;;;;;;;;;;;;;;17.20;41.63;103202.88;5127224;27;19938;-59
2022/03/20 04:01:30;;;;;;;;;;;;;;;17.19;41.67;103202.94;5126606;28;19915;-60
2022/03/20 04:03:56;;;;;;;;;;;;;;;17.19;41.65;103206.50;5127216;28;19912;-60
2022/03/20 04:06:21;;;;;;;;;;;;;;;17.17;41.54;103205.75;5127044;28;19912;-60
2022/03/20 04:08:46;;;;;;;;;;;;;;;17.18;41.66;103195.84;5126717;28;19937;-60
2022/03/20 04:11:11;;;;;;;;;;;;;;;17.18;41.60;103195.84;5126408;28;19907;-60
2022/03/20 04:13:37;;;;;;;;;;;;;;;17.16;41.49;103195.97;5126625;28;19918;-60
2022/03/20 04:16:02;;;;;;;;;;;;;;;17.16;41.78;103184.31;5126616;27;19912;-60
2022/03/20 04:18:27;;;;;;;;;;;;;;;17.16;41.78;103184.31;5126674;28;19939;-60
2022/03/20 04:20:52;;;;;;;;;;;;;;;17.14;41.67;103180.91;5126554;28;20307;-60
2022/03/20 04:26:01;;;;;;;;;;;;;;;17.14;41.56;103175.50;5126142;28;20288;-60
2022/03/20 04:28:26;;;;;;;;;;;;;;;17.12;41.50;103167.56;5126568;28;19939;-60
2022/03/20 04:30:52;;;;;;;;;;;;;;;17.12;41.50;103169.38;5125644;28;19907;-60
2022/03/20 04:33:17;;;;;;;;;;;;;;;17.11;41.43;103163.13;5125684;28;19942;-60
2022/03/20 04:35:44;;;;;;;;;;;;;;;17.10;41.44;103156.03;5126333;28;19908;-60
2022/03/20 04:38:09;;;;;;;;;;;;;;;17.09;41.44;103159.69;5126173;28;20305;-59
2022/03/20 04:40:34;;;;;;;;;;;;;;;17.10;41.33;103152.50;5125657;28;19907;-59
2022/03/20 04:42:59;;;;;;;;;;;;;;;17.10;41.49;103149.81;5126203;28;19978;-60
2022/03/20 04:45:26;;;;;;;;;;;;;;;17.09;41.29;103159.69;5125452;28;19918;-60
2022/03/20 04:58:47;;;;;;;;;;;;;;;17.06;41.28;103124.94;5126169;28;19930;-60
2022/03/20 05:01:12;;;;;;;;;;;;;;;17.05;41.21;103114.31;5125286;28;19908;-60
2022/03/20 05:03:37;;;;;;;;;;;;;;;17.05;41.33;103115.19;5126049;28;20029;-60
2022/03/20 05:06:03;;;;;;;;;;;;;;;17.05;41.49;103109.78;5125565;28;19912;-60
2022/03/20 05:08:28;;;;;;;;;;;;;;;17.03;41.43;103108.16;5125916;28;20686;-60
2022/03/20 05:13:37;;;;;;;;;;;;;;;17.03;41.39;103108.16;5125312;28;19957;-60
2022/03/20 05:16:02;;;;;;;;;;;;;;;17.02;41.40;103115.38;5125132;28;19912;-60
2022/03/20 05:18:27;;;;;;;;;;;;;;;17.01;41.47;103110.97;5125878;28;19998;-60
2022/03/20 05:20:54;;;;;;;;;;;;;;;17.01;41.25;103099.34;5125425;28;19926;-59
2022/03/20 05:23:20;;;;;;;;;;;;;;;17.00;41.22;103095.81;5124257;28;19916;-60
2022/03/20 05:25:45;;;;;;;;;;;;;;;17.00;41.27;103093.13;5124797;28;20461;-60
2022/03/20 05:28:10;;;;;;;;;;;;;;;16.99;41.32;103091.38;5125397;28;19907;-60
2022/03/20 05:30:35;;;;;;;;;;;;;;;16.99;41.57;103094.06;5124586;28;19935;-60
2022/03/20 05:33:00;;;;;;;;;;;;;;;16.98;41.50;103087.84;5124450;28;19912;-60
2022/03/20 05:35:26;;;;;;;;;;;;;;;16.98;41.70;103085.16;5125151;28;19907;-60
2022/03/20 05:37:51;;;;;;;;;;;;;;;16.98;41.74;103092.34;5124186;28;19935;-60
2022/03/20 05:40:16;;;;;;;;;;;;;;;16.97;41.58;103086.13;5124056;28;19907;-60
2022/03/20 05:42:42;;;;;;;;;;;;;;;16.97;41.62;103094.19;5115447;27;19920;-57
2022/03/20 05:45:10;;;;;;;;;;;;;;;16.97;41.82;103083.44;5124391;28;19908;-60
2022/03/20 05:47:35;;;;;;;;;;;;;;;16.95;41.89;103082.69;5106345;28;19912;-59
2022/03/20 05:50:01;;;;;;;;;;;;;;;16.96;41.75;103073.66;5104295;28;20482;-59
2022/03/20 05:52:27;;;;;;;;;;;;;;;16.96;41.75;103075.47;5107484;28;19912;-60
2022/03/20 05:54:52;;;;;;;;;;;;;;;16.95;41.71;103065.72;5104276;28;19908;-60
2022/03/20 06:00:02;;;;;;;;;;;;;;;16.95;42.04;103074.63;5124046;28;19956;-60
2022/03/20 06:02:28;;;;;;;;;;;;;;;16.94;41.96;103066.66;5123022;28;20002;-60
2022/03/20 06:04:53;;;;;;;;;;;;;;;16.94;42.05;103062.13;5123565;28;20260;-59
2022/03/20 06:07:18;;;;;;;;;;;;;;;16.94;41.88;103063.97;5107512;28;19951;-59
2022/03/20 06:09:43;;;;;;;;;;;;;;;16.94;41.97;103066.66;5103300;28;20333;-58
2022/03/20 06:12:09;;;;;;;;;;;;;;;16.94;41.97;103074.72;5120763;28;19907;-60
2022/03/20 06:14:35;;;;;;;;;;;;;;;16.94;41.97;103063.97;5113716;28;19912;-59
2022/03/20 06:17:01;;;;;;;;;;;;;;;16.94;42.16;103072.88;5103571;28;19908;-59
2022/03/20 06:19:26;;;;;;;;;;;;;;;16.94;42.05;103080.09;5103968;28;19915;-58
2022/03/20 06:21:51;;;;;;;;;;;;;;;16.94;42.04;103085.47;5107769;28;19908;-59
2022/03/20 06:24:16;;;;;;;;;;;;;;;16.93;42.16;103079.22;5123947;28;19972;-60
2022/03/20 06:26:41;;;;;;;;;;;;;;;16.93;42.19;103081.91;5123247;28;19975;-59
2022/03/20 06:29:07;;;;;;;;;;;;;;;16.94;42.21;103080.09;5106774;28;19908;-59
2022/03/20 06:31:32;;;;;;;;;;;;;;;16.93;42.21;103073.84;5103340;28;19958;-60
2022/03/20 06:33:58;;;;;;;;;;;;;;;16.94;42.24;103075.56;5104170;28;20415;-60
2022/03/20 06:36:23;;;;;;;;;;;;;;;16.93;42.36;103071.16;5102328;28;19916;-59
2022/03/20 06:38:48;;;;;;;;;;;;;;;16.93;42.30;103071.16;5102491;28;19912;-59
2022/03/20 06:41:13;;;;;;;;;;;;;;;16.93;42.24;103070.31;5103125;28;19919;-60
2022/03/20 06:43:39;;;;;;;;;;;;;;;16.92;42.35;103061.38;5119211;28;20391;-59
2022/03/20 06:46:04;;;;;;;;;;;;;;;16.93;42.44;103049.66;5113236;28;19923;-59
2022/03/20 06:48:29;;;;;;;;;;;;;;;16.93;42.27;103054.19;5104042;28;19908;-60
2022/03/20 06:50:55;;;;;;;;;;;;;;;16.92;42.38;103049.78;5103578;28;19957;-60
2022/03/20 06:53:20;;;;;;;;;;;;;;;16.91;42.46;103045.38;5120735;28;19907;-59
2022/03/20 06:55:45;;;;;;;;;;;;;;;16.92;42.35;103037.22;5123021;28;20057;-59
2022/03/20 06:58:11;;;;;;;;;;;;;;;16.92;42.51;103041.72;5123630;28;19907;-60
2022/03/20 07:00:36;;;;;;;;;;;;;;;16.91;42.45;103032.81;5122991;28;19922;-59
2022/03/20 07:03:03;;;;;;;;;;;;;;;16.91;42.40;103026.56;5123836;28;20027;-59
2022/03/20 07:05:28;;;;;;;;;;;;;;;16.90;42.49;103036.44;5123568;28;19912;-60
2022/03/20 07:07:54;;;;;;;;;;;;;;;16.91;42.52;103029.25;5123793;28;19915;-60
2022/03/20 07:10:22;;;;;;;;;;;;;;;16.90;42.53;103031.06;5122874;28;20342;-60
2022/03/20 07:12:50;;;;;;;;;;;;;;;16.92;42.75;103022.91;5123043;28;19957;-59
2022/03/20 07:15:15;;;;;;;;;;;;;;;16.91;42.85;103010.44;5123636;28;19908;-59
2022/03/20 07:17:40;;;;;;;;;;;;;;;16.91;42.78;103010.44;5127142;28;19904;-60
2022/03/20 07:20:11;;;;;;;;;;;;;;;16.91;42.72;103005.06;5127147;28;19907;-60
2022/03/20 07:22:36;;;;;;;;;;;;;;;16.91;42.89;103005.94;5125157;28;19923;-58
2022/03/20 07:30:31;;;;;;;;;;;;;;;16.89;42.83;103012.38;5126575;28;19914;-59
2022/03/20 07:32:56;;;;;;;;;;;;;;;16.88;42.68;103016.88;5127063;28;19911;-60
2022/03/20 07:35:21;;;;;;;;;;;;;;;16.87;42.80;103009.78;5127052;28;19919;-59
2022/03/20 07:37:47;;;;;;;;;;;;;;;16.87;42.88;103012.47;5125587;28;19911;-60
2022/03/20 07:40:12;;;;;;;;;;;;;;;16.87;42.80;103007.09;5111124;28;19918;-60
2022/03/20 07:42:38;;;;;;;;;;;;;;;16.88;42.70;103002.59;5121036;28;19922;-60
2022/03/20 07:45:03;;;;;;;;;;;;;;;16.88;42.74;102992.69;5120409;28;20003;-60
2022/03/20 07:47:28;;;;;;;;;;;;;;;16.88;42.83;102990.00;5124921;28;19966;-60
2022/03/20 07:49:53;;;;;;;;;;;;;;;16.88;42.63;102981.94;5121048;28;19908;-60
2022/03/20 07:52:19;;;;;;;;;;;;;;;16.90;42.61;103000.66;5121204;28;19908;-59
2022/03/20 07:54:45;;;;;;;;;;;;;;;16.89;42.83;102993.56;5117935;28;19918;-60
2022/03/20 07:57:10;;;;;;;;;;;;;;;16.89;42.66;102989.03;5125557;28;19915;-60
2022/03/20 07:59:36;;;;;;;;;;;;;;;16.89;42.69;102986.34;5123041;28;20304;-58
2022/03/20 08:02:02;;;;;;;;;;;;;;;16.89;42.78;102986.34;5124900;28;19939;-59
2022/03/20 08:04:27;;;;;;;;;;;;;;;16.91;42.80;102980.91;5121585;28;19911;-59
2022/03/20 08:06:52;;;;;;;;;;;;;;;16.91;42.91;102986.28;5120092;28;19968;-60
2022/03/20 08:09:17;;;;;;;;;;;;;;;16.90;42.78;102984.53;5119180;28;19920;-59
2022/03/20 08:11:42;;;;;;;;;;;;;;;16.91;42.78;102984.44;5120755;28;19975;-59
2022/03/20 08:14:08;;;;;;;;;;;;;;;16.91;42.94;102984.44;5118110;28;19925;-60
2022/03/20 08:16:37;;;;;;;;;;;;;;;16.91;42.85;102987.13;5119024;28;20477;-60
2022/03/20 08:19:02;;;;;;;;;;;;;;;16.92;42.97;102980.78;5120226;28;19907;-60
2022/03/20 08:21:28;;;;;;;;;;;;;;;16.93;43.01;102974.44;5119152;28;19916;-60
2022/03/20 08:23:54;;;;;;;;;;;;;;;16.94;42.93;102976.13;5122727;28;19923;-60
2022/03/20 08:26:19;;;;;;;;;;;;;;;16.96;43.02;102968.84;5118221;28;20445;-60
2022/03/20 08:28:45;;;;;;;;;;;;;;;16.96;42.78;102955.41;5126473;28;19919;-60
2022/03/20 08:31:11;;;;;;;;;;;;;;;16.97;42.72;102948.22;5125884;28;19908;-61
2022/03/20 08:33:36;;;;;;;;;;;;;;;16.99;42.78;102943.56;5126713;28;19998;-59
2022/03/20 08:36:02;;;;;;;;;;;;;;;16.99;42.70;102935.50;5126170;28;19929;-60
2022/03/20 08:38:27;;;;;;;;;;;;;;;17.01;42.80;102928.22;5126319;28;20024;-60
2022/03/20 08:40:52;;;;;;;;;;;;;;;17.02;42.60;102923.69;5107277;28;19911;-56
2022/03/20 08:43:17;;;;;;;;;;;;;;;17.02;42.59;102913.81;5103994;28;19923;-61
2022/03/20 08:45:44;;;;;;;;;;;;;;;17.02;42.53;102892.31;5109363;28;20132;-60
2022/03/20 08:48:09;;;;;;;;;;;;;;;17.04;42.70;102897.59;5119428;28;19930;-60
2022/03/20 08:50:35;;;;;;;;;;;;;;;17.05;42.47;102907.38;5123566;28;19912;-59
2022/03/20 08:53:00;;;;;;;;;;;;;;;17.07;42.42;102889.31;5113744;28;20014;-59
2022/03/20 08:55:25;;;;;;;;;;;;;;;17.07;42.67;102887.47;5114993;28;19919;-58
2022/03/20 08:57:54;;;;;;;;;;;;;;;17.09;42.54;102893.59;5119686;28;19911;-59
2022/03/20 09:00:20;;;;;;;;;;;;;;;17.10;42.65;102881.88;5117594;28;19916;-57
2022/03/20 09:02:46;;;;;;;;;;;;;;;17.11;42.50;102883.59;5107548;28;20007;-59
2022/03/20 09:05:12;;;;;;;;;;;;;;;17.12;42.44;102879.97;5120223;28;19907;-59
2022/03/20 09:07:38;;;;;;;;;;;;;;;17.13;42.29;102876.28;5105182;28;19961;-58
2022/03/20 09:10:03;;;;;;;;;;;;;;;17.13;42.41;102859.31;5104186;28;20104;-60
2022/03/20 09:12:29;;;;;;;;;;;;;;;17.13;42.37;102859.31;5112639;28;19916;-58
2022/03/20 09:14:54;;;;;;;;;;;;;;;17.15;42.40;102862.75;5111674;28;19915;-59
2022/03/20 09:20:03;;;;;;;;;;;;;;;17.16;42.48;102837.56;5120673;28;19962;-59
2022/03/20 09:22:29;;;;;;;;;;;;;;;17.15;42.34;102839.41;5117522;28;19947;-59
2022/03/20 09:24:54;;;;;;;;;;;;;;;17.16;42.49;102829.50;5122890;28;19911;-57
2022/03/20 09:27:19;;;;;;;;;;;;;;;17.17;42.47;102829.41;5124156;28;19960;-58
2022/03/20 09:29:44;;;;;;;;;;;;;;;17.17;42.61;102832.09;5125009;28;19957;-58
2022/03/20 09:32:10;;;;;;;;;;;;;;;17.17;42.52;102818.66;5124779;28;19957;-59
2022/03/20 09:34:35;;;;;;;;;;;;;;;17.17;42.47;102828.56;5125237;28;19908;-58
2022/03/20 09:37:00;;;;;;;;;;;;;;;17.16;42.72;102806.19;5125308;28;19912;-58
2022/03/20 09:39:26;;;;;;;;;;;;;;;17.16;42.44;102808.00;5123923;28;19966;-56
2022/03/20 09:41:51;;;;;;;;;;;;;;;17.16;42.49;102797.25;5124716;28;19938;-58
2022/03/20 09:44:17;;;;;;;;;;;;;;;17.16;42.49;102799.94;5124479;28;19915;-57
2022/03/20 09:46:43;;;;;;;;;;;;;;;17.16;42.39;102794.56;5124541;28;19966;-58
2022/03/20 09:49:08;;;;;;;;;;;;;;;17.15;42.54;102800.91;5123800;28;19915;-58
2022/03/20 09:51:34;;;;;;;;;;;;;;;17.16;42.35;102799.94;5124521;28;19911;-58
2022/03/20 09:53:59;;;;;;;;;;;;;;;17.16;42.51;102791.88;5121967;28;19919;-57
2022/03/20 09:56:25;;;;;;;;;;;;;;;17.15;42.49;102799.09;5121410;28;19907;-58
2022/03/20 09:58:50;;;;;;;;;;;;;;;17.16;42.34;102805.31;5118833;28;20274;-58
2022/03/20 10:01:15;;;;;;;;;;;;;;;17.07;42.47;102788.03;5115286;28;19907;-57
2022/03/20 10:03:40;;;;;;;;;;;;;;;17.15;42.41;102795.53;5124727;28;19908;-57
2022/03/20 10:06:16;;;;;;;;;;;;;;;17.14;42.47;102810.81;5124540;27;19912;-57
2022/03/20 10:09:02;;;;;;;;;;;;;;;17.14;42.41;102818.03;5118691;28;20028;-57
2022/03/20 10:11:27;;;;;;;;;;;;;;;17.14;42.39;102808.13;5110163;28;19914;-57
2022/03/20 10:14:08;;;;;;;;;;;;;;;17.15;42.54;102787.47;5121679;28;19951;-57
2022/03/20 10:16:33;;;;;;;;;;;;;;;17.15;42.52;102788.34;5115434;28;19930;-57
2022/03/20 10:18:59;;;;;;;;;;;;;;;17.16;42.60;102789.19;5118824;28;19907;-56
2022/03/20 10:21:43;;;;;;;;;;;;;;;17.16;42.45;102773.94;5120871;28;19915;-57
2022/03/20 10:24:15;;;;;;;;;;;;;;;17.04;42.50;102763.22;5120394;28;19926;-57
2022/03/20 10:26:40;;;;;;;;;;;;;;;17.17;42.39;102786.41;5121618;28;19943;-57
2022/03/20 10:29:05;;;;;;;;;;;;;;;17.18;42.61;102768.44;5116237;28;19922;-58
2022/03/20 10:31:31;;;;;;;;;;;;;;;17.18;42.63;102758.56;5117903;28;19911;-58
2022/03/20 10:34:00;;;;;;;;;;;;;;;17.19;42.53;102765.63;5120348;28;19907;-58
2022/03/20 10:36:25;;;;;;;;;;;;;;;17.19;42.69;102770.16;5118452;28;19964;-57
2022/03/20 10:38:50;;;;;;;;;;;;;;;17.20;42.63;102770.06;5123583;28;19935;-57
2022/03/20 10:41:16;;;;;;;;;;;;;;;17.22;42.63;102767.25;5119706;28;19915;-57
2022/03/20 10:43:45;;;;;;;;;;;;;;;17.21;42.70;102770.94;5122324;28;19981;-57
2022/03/20 10:46:12;;;;;;;;;;;;;;;17.23;42.53;102777.03;5119168;28;19926;-57
2022/03/20 10:48:38;;;;;;;;;;;;;;;17.24;42.60;102778.75;5122838;28;19914;-57
2022/03/20 10:51:04;;;;;;;;;;;;;;;17.24;42.49;102768.84;5124846;28;19914;-57
2022/03/20 10:53:29;;;;;;;;;;;;;;;17.26;42.56;102775.97;5119545;28;20295;-57
2022/03/20 10:55:55;;;;;;;;;;;;;;;17.26;42.63;102784.03;5127516;27;19975;-57
2022/03/20 10:58:20;;;;;;;;;;;;;;;17.26;42.62;102782.19;5128095;28;19907;-56
2022/03/20 11:00:46;;;;;;;;;;;;;;;17.28;42.55;102785.59;5121555;28;19907;-57
2022/03/20 11:03:12;;;;;;;;;;;;;;;17.28;42.41;102784.75;5127721;27;20367;-57
2022/03/20 11:05:37;;;;;;;;;;;;;;;17.29;42.43;102790.03;5126490;28;20474;-57
2022/03/20 11:08:03;;;;;;;;;;;;;;;17.30;42.38;102780.16;5125995;28;19943;-52
2022/03/20 11:10:29;;;;;;;;;;;;;;;17.30;42.52;102781.00;5121072;28;19922;-57
2022/03/20 11:12:57;;;;;;;;;;;;;;;17.31;42.45;102788.09;5121858;27;19911;-57
2022/03/20 11:15:22;;;;;;;;;;;;;;;17.32;42.36;102786.25;5126043;28;19935;-57
2022/03/20 11:17:47;;;;;;;;;;;;;;;17.33;42.46;102782.59;5127755;28;19908;-57
2022/03/20 11:20:13;;;;;;;;;;;;;;;17.33;42.54;102783.47;5127897;28;19907;-57
2022/03/20 11:22:42;;;;;;;;;;;;;;;17.33;42.45;102770.03;5127649;28;20002;-57
2022/03/20 11:25:08;;;;;;;;;;;;;;;17.33;42.17;102770.03;5108270;28;19987;-57
2022/03/20 11:27:34;;;;;;;;;;;;;;;17.34;42.34;102769.06;5105808;28;19912;-58
2022/03/20 11:30:06;;;;;;;;;;;;;;;17.35;42.18;102765.38;5105844;28;19950;-57
2022/03/20 11:32:32;;;;;;;;;;;;;;;17.35;42.16;102759.16;5106567;28;19908;-56
2022/03/20 11:34:57;;;;;;;;;;;;;;;17.36;42.23;102755.47;5106479;28;19943;-59
2022/03/20 11:37:22;;;;;;;;;;;;;;;17.36;42.30;102747.41;5116866;28;19911;-58
2022/03/20 11:40:07;;;;;;;;;;;;;;;17.36;42.23;102745.56;5125585;28;20724;-57
2022/03/20 11:42:32;;;;;;;;;;;;;;;17.37;42.32;102746.44;5111139;28;19923;-57
2022/03/20 11:45:07;;;;;;;;;;;;;;;17.38;42.26;102748.19;5106269;28;19975;-57
2022/03/20 11:47:33;;;;;;;;;;;;;;;17.39;42.42;102750.75;5126883;27;19919;-56
2022/03/20 11:50:17;;;;;;;;;;;;;;;17.39;42.29;102745.34;5127087;28;19912;-59
2022/03/20 11:52:45;;;;;;;;;;;;;;;17.41;42.38;102756.00;5127524;28;19991;-57
2022/03/20 11:55:24;;;;;;;;;;;;;;;17.39;42.61;102748.06;5126893;28;19907;-59
2022/03/20 11:57:49;;;;;;;;;;;;;;;17.42;42.60;102734.38;5126285;28;19919;-57
2022/03/20 12:00:18;;;;;;;;;;;;;;;17.43;42.80;102732.56;5106460;28;19908;-56
2022/03/20 12:02:51;;;;;;;;;;;;;;;17.43;42.79;102738.78;5105433;28;19923;-56
2022/03/20 12:05:30;;;;;;;;;;;;;;;17.44;42.73;102742.31;5123511;28;19957;-57
2022/03/20 12:08:02;;;;;;;;;;;;;;;17.46;42.81;102732.34;5125092;28;19915;-58
2022/03/20 12:10:37;;;;;;;;;;;;;;;17.46;42.85;102735.88;5126170;28;19929;-57
2022/03/20 12:13:14;;;;;;;;;;;;;;;17.46;42.78;102733.19;5117156;28;19916;-56
2022/03/20 12:15:42;;;;;;;;;;;;;;;17.48;42.68;102733.06;5105547;28;20466;-57
2022/03/20 12:18:10;;;;;;;;;;;;;;;17.49;42.55;102734.75;5106890;28;19999;-58
2022/03/20 12:20:59;;;;;;;;;;;;;;;17.49;42.71;102729.38;5106198;28;19915;-57
2022/03/20 12:23:38;;;;;;;;;;;;;;;17.50;42.50;102723.06;5126064;28;19922;-57
2022/03/20 12:26:22;;;;;;;;;;;;;;;17.50;42.72;102723.06;5125962;28;19918;-56
2022/03/20 12:28:47;;;;;;;;;;;;;;;17.50;42.55;102720.38;5125348;28;19908;-57
2022/03/20 12:31:23;;;;;;;;;;;;;;;17.51;42.61;102716.69;5124257;28;19961;-57
2022/03/20 12:33:49;;;;;;;;;;;;;;;17.51;42.59;102715.84;5126668;28;19908;-57
2022/03/20 12:36:26;;;;;;;;;;;;;;;17.51;42.47;102710.47;5125627;28;19907;-57
2022/03/20 12:38:51;;;;;;;;;;;;;;;17.50;42.39;102698.84;5126064;28;19912;-56
2022/03/20 12:41:16;;;;;;;;;;;;;;;17.51;42.54;102694.34;5125923;28;19911;-57
2022/03/20 12:43:43;;;;;;;;;;;;;;;17.51;42.45;102697.03;5108116;28;19911;-59
2022/03/20 12:46:08;;;;;;;;;;;;;;;17.51;42.28;102699.72;5125419;28;19912;-57
2022/03/20 12:48:35;;;;;;;;;;;;;;;17.51;42.34;102684.44;5126072;28;19908;-57
2022/03/20 12:51:07;;;;;;;;;;;;;;;17.51;42.42;102678.19;5124692;28;19908;-60
2022/03/20 12:53:36;;;;;;;;;;;;;;;17.51;42.41;102668.28;5126028;28;20404;-57
2022/03/20 12:56:02;;;;;;;;;;;;;;;17.51;42.38;102672.81;5125192;28;20378;-56
2022/03/20 12:58:27;;;;;;;;;;;;;;;17.52;42.41;102669.16;5125942;28;19908;-57
2022/03/20 13:00:55;;;;;;;;;;;;;;;17.52;42.32;102678.06;5124905;28;19919;-57
2022/03/20 13:03:20;;;;;;;;;;;;;;;17.52;42.21;102671.84;5125933;28;19912;-56
2022/03/20 13:05:50;;;;;;;;;;;;;;;17.52;42.27;102677.22;5125575;28;19911;-55
2022/03/20 13:08:28;;;;;;;;;;;;;;;17.51;42.30;102672.81;5125798;28;19934;-56
2022/03/20 13:10:57;;;;;;;;;;;;;;;17.52;42.09;102674.53;5106499;28;19908;-58